Time,TemperatureF,DewpointF,PressureIn,WindDirection,WindDirectionDegrees,WindSpeedMPH,WindSpeedGustMPH,Humidity,HourlyPrecipIn,Conditions,Clouds,dailyrainin,SolarRadiationWatts/m^2,SoftwareType,DateUTC
2013-10-26 00:22:00,42.0,37.0,-100.00,East,92,1.0,3.0,83,0.00,,,-99.99,0.000000,,2013-10-26 06:22:00,
2013-10-26 00:32:00,42.0,37.0,-100.00,East,92,1.0,3.0,83,0.00,,,-99.99,0.000000,,2013-10-26 06:32:00,
2013-10-26 00:42:00,42.0,37.0,-100.00,East,92,1.0,3.0,83,0.00,,,-99.99,0.000000,,2013-10-26 06:42:00,
2013-10-26 00:52:00,42.0,37.0,-100.00,East,92,1.0,3.0,83,0.00,,,-99.99,0.000000,,2013-10-26 06:52:00,
2013-10-26 01:21:00,43.0,39.0,-100.00,East,99,3.0,4.0,86,0.00,,,0.00,0.000000,,2013-10-26 07:21:00,
2013-10-26 01:32:00,43.0,39.0,-100.00,East,99,3.0,4.0,86,0.00,,,0.00,0.000000,,2013-10-26 07:32:00,
2013-10-26 01:42:00,43.0,39.0,-100.00,East,99,3.0,4.0,86,0.00,,,0.00,0.000000,,2013-10-26 07:42:00,
2013-10-26 01:52:00,43.0,39.0,-100.00,East,99,3.0,4.0,86,0.00,,,0.00,0.000000,,2013-10-26 07:52:00,
2013-10-26 02:22:00,41.0,38.0,-100.00,ESE,106,4.0,7.0,88,0.00,,,0.00,0.000000,,2013-10-26 08:22:00,
2013-10-26 02:32:00,41.0,38.0,-100.00,ESE,106,4.0,7.0,88,0.00,,,0.00,0.000000,,2013-10-26 08:32:00,
2013-10-26 02:42:00,41.0,38.0,-100.00,ESE,106,4.0,7.0,88,0.00,,,0.00,0.000000,,2013-10-26 08:42:00,
2013-10-26 02:52:00,41.0,38.0,-100.00,ESE,106,4.0,7.0,88,0.00,,,0.00,0.000000,,2013-10-26 08:52:00,
2013-10-26 03:22:00,40.0,37.0,-100.00,ESE,105,3.0,6.0,88,0.00,,,0.00,0.000000,,2013-10-26 09:22:00,
2013-10-26 03:33:00,40.0,37.0,-100.00,ESE,105,3.0,6.0,88,0.00,,,0.00,0.000000,,2013-10-26 09:33:00,
2013-10-26 03:43:00,40.0,37.0,-100.00,ESE,105,3.0,6.0,88,0.00,,,0.00,0.000000,,2013-10-26 09:43:00,
2013-10-26 03:53:00,40.0,37.0,-100.00,ESE,105,3.0,6.0,88,0.00,,,0.00,0.000000,,2013-10-26 09:53:00,
2013-10-26 04:22:00,40.0,36.0,-100.00,ESE,106,5.0,6.0,84,0.00,,,0.00,0.000000,,2013-10-26 10:22:00,
2013-10-26 04:33:00,40.0,36.0,-100.00,ESE,106,5.0,6.0,84,0.00,,,0.00,0.000000,,2013-10-26 10:33:00,
2013-10-26 04:42:00,40.0,36.0,-100.00,ESE,106,5.0,6.0,84,0.00,,,0.00,0.000000,,2013-10-26 10:42:00,
2013-10-26 04:53:00,40.0,36.0,-100.00,ESE,106,5.0,6.0,84,0.00,,,0.00,0.000000,,2013-10-26 10:53:00,
2013-10-26 05:21:00,38.0,34.0,-100.00,ESE,109,4.0,7.0,84,0.00,,,0.00,0.000000,,2013-10-26 11:21:00,
2013-10-26 05:33:00,38.0,34.0,-100.00,ESE,109,4.0,7.0,84,0.00,,,0.00,0.000000,,2013-10-26 11:33:00,
2013-10-26 05:42:00,38.0,34.0,-100.00,ESE,109,4.0,7.0,84,0.00,,,0.00,0.000000,,2013-10-26 11:42:00,
2013-10-26 05:52:00,38.0,34.0,-100.00,ESE,109,4.0,7.0,84,0.00,,,0.00,0.000000,,2013-10-26 11:52:00,
2013-10-26 06:21:00,37.0,33.0,-100.00,ESE,103,4.0,7.0,85,0.00,,,0.00,0.000000,,2013-10-26 12:21:00,
2013-10-26 06:32:00,37.0,33.0,-100.00,ESE,103,4.0,7.0,85,0.00,,,0.00,0.000000,,2013-10-26 12:32:00,
2013-10-26 06:42:00,37.0,33.0,-100.00,ESE,103,4.0,7.0,85,0.00,,,0.00,0.000000,,2013-10-26 12:42:00,
2013-10-26 06:52:00,37.0,33.0,-100.00,ESE,103,4.0,7.0,85,0.00,,,0.00,0.000000,,2013-10-26 12:52:00,
2013-10-26 07:21:00,38.0,35.0,-100.00,ESE,109,3.0,7.0,88,0.00,,,-99.99,0.000000,,2013-10-26 13:21:00,
2013-10-26 07:32:00,38.0,35.0,-100.00,ESE,109,3.0,7.0,88,0.00,,,-99.99,0.000000,,2013-10-26 13:32:00,
2013-10-26 07:42:00,38.0,35.0,-100.00,ESE,109,3.0,7.0,88,0.00,,,-99.99,0.000000,,2013-10-26 13:42:00,
2013-10-26 07:52:00,38.0,35.0,-100.00,ESE,109,3.0,7.0,88,0.00,,,-99.99,0.000000,,2013-10-26 13:52:00,
2013-10-26 08:21:00,35.0,31.0,-100.00,East,90,4.0,6.0,84,0.00,,,-99.99,0.000000,,2013-10-26 14:21:00,
2013-10-26 08:31:00,35.0,31.0,-100.00,East,90,4.0,6.0,84,0.00,,,-99.99,0.000000,,2013-10-26 14:31:00,
2013-10-26 08:42:00,35.0,31.0,-100.00,East,90,4.0,6.0,84,0.00,,,-99.99,0.000000,,2013-10-26 14:42:00,
2013-10-26 08:52:00,35.0,31.0,-100.00,East,90,4.0,6.0,84,0.00,,,-99.99,0.000000,,2013-10-26 14:52:00,
2013-10-26 09:23:00,38.0,29.0,-100.00,WSW,240,0.0,8.0,70,0.00,,,0.00,7.000000,,2013-10-26 15:23:00,
2013-10-26 09:34:00,38.0,29.0,-100.00,WSW,240,0.0,8.0,70,0.00,,,0.00,7.000000,,2013-10-26 15:34:00,
2013-10-26 09:44:00,38.0,29.0,-100.00,WSW,240,0.0,8.0,70,0.00,,,0.00,7.000000,,2013-10-26 15:44:00,
2013-10-26 10:24:00,44.0,29.0,-100.00,ENE,61,2.0,6.0,56,-99.99,,,0.00,152.000000,,2013-10-26 16:24:00,
2013-10-26 10:34:00,44.0,29.0,-100.00,ENE,61,2.0,6.0,56,-99.99,,,0.00,152.000000,,2013-10-26 16:34:00,
2013-10-26 10:44:00,44.0,29.0,-100.00,ENE,61,2.0,6.0,56,-99.99,,,0.00,152.000000,,2013-10-26 16:44:00,
2013-10-26 10:53:00,44.0,29.0,-100.00,ENE,61,2.0,6.0,56,-99.99,,,0.00,152.000000,,2013-10-26 16:53:00,
2013-10-26 11:23:00,53.0,35.0,-100.00,SW,232,2.0,5.0,51,-99.99,,,0.00,371.000000,,2013-10-26 17:23:00,
2013-10-26 11:34:00,53.0,35.0,-100.00,SW,232,2.0,5.0,51,-99.99,,,0.00,371.000000,,2013-10-26 17:34:00,
2013-10-26 11:43:00,53.0,35.0,-100.00,SW,232,2.0,5.0,51,-99.99,,,0.00,371.000000,,2013-10-26 17:43:00,
2013-10-26 11:52:00,53.0,35.0,-100.00,SW,232,2.0,5.0,51,-99.99,,,0.00,371.000000,,2013-10-26 17:52:00,
2013-10-26 12:21:00,56.0,34.0,-100.00,WNW,301,3.0,7.0,43,0.00,,,0.00,587.000000,,2013-10-26 18:21:00,
2013-10-26 12:32:00,56.0,34.0,-100.00,WNW,301,3.0,7.0,43,0.00,,,0.00,587.000000,,2013-10-26 18:32:00,
2013-10-26 12:42:00,56.0,34.0,-100.00,WNW,301,3.0,7.0,43,0.00,,,0.00,587.000000,,2013-10-26 18:42:00,
2013-10-26 12:52:00,56.0,34.0,-100.00,WNW,301,3.0,7.0,43,0.00,,,0.00,587.000000,,2013-10-26 18:52:00,
2013-10-26 13:22:00,61.0,34.0,-100.00,WNW,293,4.0,6.0,36,0.00,,,0.00,749.000000,,2013-10-26 19:22:00,
2013-10-26 13:32:00,61.0,34.0,-100.00,WNW,293,4.0,6.0,36,0.00,,,0.00,749.000000,,2013-10-26 19:32:00,
2013-10-26 13:42:00,61.0,34.0,-100.00,WNW,293,4.0,6.0,36,0.00,,,0.00,749.000000,,2013-10-26 19:42:00,
2013-10-26 13:52:00,61.0,34.0,-100.00,WNW,293,4.0,6.0,36,0.00,,,0.00,749.000000,,2013-10-26 19:52:00,
2013-10-26 14:22:00,65.0,30.0,-100.00,West,264,5.0,7.0,27,0.00,,,0.00,829.000000,,2013-10-26 20:22:00,
2013-10-26 14:33:00,65.0,30.0,-100.00,West,264,5.0,7.0,27,0.00,,,0.00,829.000000,,2013-10-26 20:33:00,
2013-10-26 14:43:00,65.0,30.0,-100.00,West,264,5.0,7.0,27,0.00,,,0.00,829.000000,,2013-10-26 20:43:00,
2013-10-26 14:52:00,65.0,30.0,-100.00,West,264,5.0,7.0,27,0.00,,,0.00,829.000000,,2013-10-26 20:52:00,
2013-10-26 15:21:00,67.0,29.0,-100.00,WSW,253,3.0,9.0,24,0.00,,,0.00,834.000000,,2013-10-26 21:21:00,
2013-10-26 15:34:00,67.0,29.0,-100.00,WSW,253,3.0,9.0,24,0.00,,,0.00,834.000000,,2013-10-26 21:34:00,
2013-10-26 15:43:00,67.0,29.0,-100.00,WSW,253,3.0,9.0,24,0.00,,,0.00,834.000000,,2013-10-26 21:43:00,
2013-10-26 15:54:00,67.0,29.0,-100.00,WSW,253,3.0,9.0,24,0.00,,,0.00,834.000000,,2013-10-26 21:54:00,
2013-10-26 16:24:00,70.0,27.0,-100.00,NW,316,5.0,11.0,20,0.00,,,0.00,767.000000,,2013-10-26 22:24:00,
2013-10-26 16:33:00,70.0,27.0,-100.00,NW,316,5.0,11.0,20,0.00,,,0.00,767.000000,,2013-10-26 22:33:00,
2013-10-26 16:43:00,70.0,27.0,-100.00,NW,316,5.0,11.0,20,0.00,,,0.00,767.000000,,2013-10-26 22:43:00,
2013-10-26 16:53:00,70.0,27.0,-100.00,NW,316,5.0,11.0,20,0.00,,,0.00,767.000000,,2013-10-26 22:53:00,
2013-10-26 17:22:00,69.0,26.0,-100.00,NW,304,4.0,11.0,20,0.00,,,0.00,618.000000,,2013-10-26 23:22:00,
2013-10-26 17:34:00,69.0,26.0,-100.00,NW,304,4.0,11.0,20,0.00,,,0.00,618.000000,,2013-10-26 23:34:00,
2013-10-26 17:42:00,69.0,26.0,-100.00,NW,304,4.0,11.0,20,0.00,,,0.00,618.000000,,2013-10-26 23:42:00,
2013-10-26 17:52:00,69.0,26.0,-100.00,NW,304,4.0,11.0,20,0.00,,,0.00,618.000000,,2013-10-26 23:52:00,
2013-10-26 18:21:00,70.0,28.0,-100.00,NW,309,3.0,10.0,21,0.00,,,0.00,410.000000,,2013-10-27 00:21:00,
2013-10-26 18:32:00,70.0,28.0,-100.00,NW,309,3.0,10.0,21,0.00,,,0.00,410.000000,,2013-10-27 00:32:00,
2013-10-26 18:42:00,70.0,28.0,-100.00,NW,309,3.0,10.0,21,0.00,,,0.00,410.000000,,2013-10-27 00:42:00,
2013-10-26 19:22:00,65.0,29.0,-100.00,NW,310,4.0,8.0,26,0.00,,,0.00,176.000000,,2013-10-27 01:22:00,
2013-10-26 19:32:00,65.0,29.0,-100.00,NW,310,4.0,8.0,26,0.00,,,0.00,176.000000,,2013-10-27 01:32:00,
2013-10-26 20:21:00,59.0,33.0,-100.00,West,259,3.0,5.0,37,-99.99,,,0.00,9.000000,,2013-10-27 02:21:00,
2013-10-26 20:32:00,59.0,33.0,-100.00,West,259,3.0,5.0,37,-99.99,,,0.00,9.000000,,2013-10-27 02:32:00,
2013-10-26 21:21:00,54.0,36.0,-100.00,East,93,4.0,6.0,51,0.00,,,0.00,0.000000,,2013-10-27 03:21:00,
2013-10-26 21:34:00,54.0,36.0,-100.00,East,93,4.0,6.0,51,0.00,,,0.00,0.000000,,2013-10-27 03:34:00,
2013-10-26 21:44:00,54.0,36.0,-100.00,East,93,4.0,6.0,51,0.00,,,0.00,0.000000,,2013-10-27 03:44:00,
2013-10-26 21:54:00,54.0,36.0,-100.00,East,93,4.0,6.0,51,0.00,,,0.00,0.000000,,2013-10-27 03:54:00,
2013-10-26 22:24:00,51.0,36.0,-100.00,East,99,6.0,8.0,56,0.00,,,-99.99,0.000000,,2013-10-27 04:24:00,
2013-10-26 22:34:00,51.0,36.0,-100.00,East,99,6.0,8.0,56,0.00,,,-99.99,0.000000,,2013-10-27 04:34:00,
2013-10-26 22:44:00,51.0,36.0,-100.00,East,99,6.0,8.0,56,0.00,,,-99.99,0.000000,,2013-10-27 04:44:00,
2013-10-26 22:53:00,51.0,36.0,-100.00,East,99,6.0,8.0,56,0.00,,,-99.99,0.000000,,2013-10-27 04:53:00,
2013-10-26 23:23:00,49.0,35.0,-100.00,East,94,5.0,11.0,58,0.00,,,0.00,0.000000,,2013-10-27 05:23:00,
2013-10-26 23:34:00,49.0,35.0,-100.00,East,94,5.0,11.0,58,0.00,,,0.00,0.000000,,2013-10-27 05:34:00,
2013-10-26 23:43:00,49.0,35.0,-100.00,East,94,5.0,11.0,58,0.00,,,0.00,0.000000,,2013-10-27 05:43:00,
2013-10-26 23:52:00,49.0,35.0,-100.00,East,94,5.0,11.0,58,0.00,,,0.00,0.000000,,2013-10-27 05:52:00,